Time,TemperatureF,DewpointF,PressureIn,WindDirection,WindDirectionDegrees,WindSpeedMPH,WindSpeedGustMPH,Humidity,HourlyPrecipIn,Conditions,Clouds,dailyrainin,SoftwareType,DateUTC
2013-03-02 00:00:00,24.1,19.2,29.84,NW,315,1.1,2.0,81,0.00,,,0.00,WUHU216HW,2013-03-02 05:00:00,
2013-03-02 00:05:00,24.3,19.4,29.84,NNW,338,0.9,2.0,81,0.00,,,0.00,WUHU216HW,2013-03-02 05:05:00,
2013-03-02 00:10:00,24.3,19.4,29.84,NW,315,0.4,1.8,81,0.00,,,0.00,WUHU216HW,2013-03-02 05:10:00,
2013-03-02 00:15:00,24.1,19.2,29.84,NNW,338,0.4,2.0,81,0.00,,,0.00,WUHU216HW,2013-03-02 05:15:00,
2013-03-02 00:20:00,24.1,19.2,29.84,NW,315,1.1,2.0,81,0.00,,,0.00,WUHU216HW,2013-03-02 05:20:00,
2013-03-02 00:25:00,24.1,19.2,29.84,WNW,293,2.9,2.9,81,0.00,,,0.00,WUHU216HW,2013-03-02 05:25:00,
2013-03-02 00:30:00,24.3,19.4,29.84,NW,315,2.5,2.9,81,0.00,,,0.00,WUHU216HW,2013-03-02 05:30:00,
2013-03-02 00:35:00,24.3,19.4,29.83,NNW,338,3.1,3.1,81,0.00,,,0.00,WUHU216HW,2013-03-02 05:35:00,
2013-03-02 00:40:00,24.3,19.4,29.83,NW,315,0.7,3.1,81,0.00,,,0.00,WUHU216HW,2013-03-02 05:40:00,
2013-03-02 00:45:00,24.3,19.4,29.83,NNW,338,1.1,3.1,81,0.00,,,0.00,WUHU216HW,2013-03-02 05:45:00,
2013-03-02 00:50:00,24.3,19.4,29.83,NNW,338,1.1,2.7,81,0.00,,,0.00,WUHU216HW,2013-03-02 05:50:00,
2013-03-02 00:55:00,24.3,19.1,29.83,NW,315,1.8,8.5,80,0.00,,,0.00,WUHU216HW,2013-03-02 05:55:00,
2013-03-02 01:00:00,24.3,19.4,29.83,North,0,1.1,8.5,81,0.00,,,0.00,WUHU216HW,2013-03-02 06:00:00,
2013-03-02 01:05:00,24.3,19.4,29.83,NW,315,1.8,4.9,81,0.00,,,0.00,WUHU216HW,2013-03-02 06:05:00,
2013-03-02 01:10:00,24.3,19.4,29.83,NW,315,1.6,3.6,81,0.00,,,0.00,WUHU216HW,2013-03-02 06:10:00,
2013-03-02 01:15:00,24.1,19.2,29.83,WNW,293,1.8,2.7,81,0.00,,,0.00,WUHU216HW,2013-03-02 06:15:00,
2013-03-02 01:20:00,24.1,19.2,29.83,WNW,293,1.1,2.7,81,0.00,,,0.00,WUHU216HW,2013-03-02 06:20:00,
2013-03-02 01:25:00,24.1,19.2,29.83,WNW,293,1.1,2.9,81,0.00,,,0.00,WUHU216HW,2013-03-02 06:25:00,
2013-03-02 01:30:00,24.1,19.2,29.83,WNW,293,1.3,3.8,81,0.00,,,0.00,WUHU216HW,2013-03-02 06:30:00,
2013-03-02 01:35:00,24.1,18.9,29.83,WNW,293,3.1,3.8,80,0.00,,,0.00,WUHU216HW,2013-03-02 06:35:00,
2013-03-02 01:40:00,24.1,18.9,29.83,WNW,293,3.4,3.4,80,0.00,,,0.00,WUHU216HW,2013-03-02 06:40:00,
2013-03-02 01:45:00,24.1,19.2,29.84,WNW,293,2.5,5.4,81,0.00,,,0.00,WUHU216HW,2013-03-02 06:45:00,
2013-03-02 01:50:00,24.1,19.2,29.84,NNE,23,3.4,5.4,81,0.00,,,0.00,WUHU216HW,2013-03-02 06:50:00,
2013-03-02 01:55:00,24.1,18.9,29.84,WNW,293,0.9,3.4,80,0.00,,,0.00,WUHU216HW,2013-03-02 06:55:00,
2013-03-02 02:00:00,24.1,18.9,29.84,NW,315,3.4,3.4,80,0.00,,,0.00,WUHU216HW,2013-03-02 07:00:00,
2013-03-02 02:05:00,24.1,18.9,29.84,North,0,1.3,3.8,80,0.00,,,0.00,WUHU216HW,2013-03-02 07:05:00,
2013-03-02 02:10:00,24.1,18.9,29.84,North,0,0.4,4.3,80,0.00,,,0.00,WUHU216HW,2013-03-02 07:10:00,
2013-03-02 02:15:00,24.1,18.9,29.83,WNW,293,1.8,4.3,80,0.00,,,0.00,WUHU216HW,2013-03-02 07:15:00,
2013-03-02 02:20:00,24.1,18.9,29.84,NW,315,1.3,4.0,80,0.00,,,0.00,WUHU216HW,2013-03-02 07:20:00,
2013-03-02 02:25:00,23.9,18.7,29.83,NW,315,1.1,3.4,80,0.00,,,0.00,WUHU216HW,2013-03-02 07:25:00,
2013-03-02 02:30:00,23.9,19.0,29.83,NW,315,1.6,2.2,81,0.00,,,0.00,WUHU216HW,2013-03-02 07:30:00,
2013-03-02 02:35:00,23.9,18.7,29.83,WNW,293,1.8,3.8,80,0.00,,,0.00,WUHU216HW,2013-03-02 07:35:00,
2013-03-02 02:40:00,23.9,18.7,29.83,North,0,1.3,3.8,80,0.00,,,0.00,WUHU216HW,2013-03-02 07:40:00,
2013-03-02 02:45:00,23.9,18.7,29.83,NW,315,4.0,4.0,80,0.00,,,0.00,WUHU216HW,2013-03-02 07:45:00,
2013-03-02 02:50:00,23.8,18.5,29.83,North,0,0.9,4.0,80,0.00,,,0.00,WUHU216HW,2013-03-02 07:50:00,
2013-03-02 02:55:00,23.8,18.5,29.82,NW,315,0.9,4.0,80,0.00,,,0.00,WUHU216HW,2013-03-02 07:55:00,
2013-03-02 03:00:00,23.8,18.5,29.82,WNW,293,1.3,1.3,80,0.00,,,0.00,WUHU216HW,2013-03-02 08:00:00,
2013-03-02 03:05:00,23.9,18.7,29.82,NW,315,0.4,1.3,80,0.00,,,0.00,WUHU216HW,2013-03-02 08:05:00,
2013-03-02 03:10:00,23.8,18.8,29.82,NNW,338,0.2,1.6,81,0.00,,,0.00,WUHU216HW,2013-03-02 08:10:00,
2013-03-02 03:15:00,23.8,18.5,29.82,North,0,4.7,4.7,80,0.00,,,0.00,WUHU216HW,2013-03-02 08:15:00,
2013-03-02 03:20:00,23.8,18.5,29.82,NW,315,0.9,4.7,80,0.00,,,0.00,WUHU216HW,2013-03-02 08:20:00,
2013-03-02 03:25:00,23.8,18.5,29.82,North,0,0.9,4.7,80,0.00,,,0.00,WUHU216HW,2013-03-02 08:25:00,
2013-03-02 03:30:00,23.8,18.5,29.82,NW,315,1.6,2.5,80,0.00,,,0.00,WUHU216HW,2013-03-02 08:30:00,
2013-03-02 03:35:00,23.9,18.7,29.82,NW,315,0.7,2.5,80,0.00,,,0.00,WUHU216HW,2013-03-02 08:35:00,
2013-03-02 03:40:00,23.9,18.7,29.82,NW,315,0.9,2.2,80,0.00,,,0.00,WUHU216HW,2013-03-02 08:40:00,
2013-03-02 03:45:00,23.9,18.7,29.82,NW,315,0.7,2.7,80,0.00,,,0.00,WUHU216HW,2013-03-02 08:45:00,
2013-03-02 03:50:00,23.9,18.7,29.82,WNW,293,0.7,4.7,80,0.00,,,0.00,WUHU216HW,2013-03-02 08:50:00,
2013-03-02 03:55:00,23.9,18.7,29.82,WNW,293,0.4,4.7,80,0.00,,,0.00,WUHU216HW,2013-03-02 08:55:00,
2013-03-02 04:00:00,23.9,18.7,29.82,NW,315,1.1,2.5,80,0.00,,,0.00,WUHU216HW,2013-03-02 09:00:00,
2013-03-02 04:05:00,23.9,18.7,29.82,WNW,293,1.1,3.1,80,0.00,,,0.00,WUHU216HW,2013-03-02 09:05:00,
2013-03-02 04:10:00,23.9,18.7,29.82,WNW,293,0.4,3.6,80,0.00,,,0.00,WUHU216HW,2013-03-02 09:10:00,
2013-03-02 04:15:00,23.9,18.7,29.82,NW,315,0.4,3.6,80,0.00,,,0.00,WUHU216HW,2013-03-02 09:15:00,
2013-03-02 04:20:00,23.9,18.7,29.82,West,270,0.2,2.5,80,0.00,,,0.00,WUHU216HW,2013-03-02 09:20:00,
2013-03-02 04:25:00,23.9,18.7,29.82,North,0,0.4,1.1,80,0.00,,,0.00,WUHU216HW,2013-03-02 09:25:00,
2013-03-02 04:30:00,23.9,19.0,29.82,WNW,293,2.0,2.0,81,0.00,,,0.00,WUHU216HW,2013-03-02 09:30:00,
2013-03-02 04:35:00,23.9,19.0,29.82,North,0,1.1,2.0,81,0.00,,,0.00,WUHU216HW,2013-03-02 09:35:00,
2013-03-02 04:40:00,23.9,19.0,29.81,West,270,1.3,3.1,81,0.00,,,0.00,WUHU216HW,2013-03-02 09:40:00,
2013-03-02 04:45:00,23.9,19.0,29.82,NNW,338,1.8,4.0,81,0.00,,,0.00,WUHU216HW,2013-03-02 09:45:00,
2013-03-02 04:50:00,23.8,18.8,29.81,NW,315,0.7,4.0,81,0.00,,,0.00,WUHU216HW,2013-03-02 09:50:00,
2013-03-02 04:55:00,23.9,19.0,29.82,NW,315,0.4,3.6,81,0.00,,,0.00,WUHU216HW,2013-03-02 09:55:00,
2013-03-02 05:00:00,23.9,19.0,29.82,NW,315,1.1,2.2,81,0.00,,,0.00,WUHU216HW,2013-03-02 10:00:00,
2013-03-02 05:05:00,23.9,19.0,29.82,NNW,338,1.3,1.8,81,0.00,,,0.00,WUHU216HW,2013-03-02 10:05:00,
2013-03-02 05:11:00,23.9,19.3,29.82,NW,315,1.8,1.8,82,0.00,,,0.00,WUHU216HW,2013-03-02 10:11:00,
2013-03-02 05:16:00,23.8,19.1,29.82,NW,315,1.3,2.7,82,0.00,,,0.00,WUHU216HW,2013-03-02 10:16:00,
2013-03-02 05:21:00,23.9,19.3,29.82,WNW,293,3.1,3.1,82,0.00,,,0.00,WUHU216HW,2013-03-02 10:21:00,
2013-03-02 05:26:00,23.8,19.1,29.82,NW,315,1.8,3.1,82,0.00,,,0.00,WUHU216HW,2013-03-02 10:26:00,
2013-03-02 05:31:00,23.8,19.1,29.82,NW,315,3.4,3.4,82,0.00,,,0.00,WUHU216HW,2013-03-02 10:31:00,
2013-03-02 05:36:00,23.9,19.3,29.82,ENE,68,0.2,3.4,82,0.00,,,0.00,WUHU216HW,2013-03-02 10:36:00,
2013-03-02 05:41:00,23.9,19.3,29.82,WNW,293,2.5,3.4,82,0.00,,,0.00,WUHU216HW,2013-03-02 10:41:00,
2013-03-02 05:46:00,23.9,19.3,29.81,NW,315,2.2,3.4,82,0.00,,,0.00,WUHU216HW,2013-03-02 10:46:00,
2013-03-02 05:51:00,23.9,19.3,29.81,NW,315,0.9,3.1,82,0.00,,,0.00,WUHU216HW,2013-03-02 10:51:00,
2013-03-02 05:56:00,23.8,19.1,29.82,WNW,293,1.1,4.0,82,0.00,,,0.00,WUHU216HW,2013-03-02 10:56:00,
2013-03-02 06:01:00,23.9,19.3,29.82,NW,315,1.6,4.0,82,0.00,,,0.00,WUHU216HW,2013-03-02 11:01:00,
2013-03-02 06:06:00,23.9,19.3,29.82,NW,315,0.4,4.7,82,0.00,,,0.00,WUHU216HW,2013-03-02 11:06:00,
2013-03-02 06:11:00,23.8,19.1,29.82,NNW,338,0.7,4.7,82,0.00,,,0.00,WUHU216HW,2013-03-02 11:11:00,
2013-03-02 06:16:00,23.8,19.1,29.82,WNW,293,0.9,3.1,82,0.00,,,0.00,WUHU216HW,2013-03-02 11:16:00,
2013-03-02 06:21:00,23.8,19.1,29.82,NW,315,1.1,2.7,82,0.00,,,0.00,WUHU216HW,2013-03-02 11:21:00,
2013-03-02 06:26:00,23.6,18.9,29.82,NW,315,0.9,2.9,82,0.00,,,0.00,WUHU216HW,2013-03-02 11:26:00,
2013-03-02 06:31:00,23.8,19.1,29.82,North,0,2.7,2.9,82,0.00,,,0.00,WUHU216HW,2013-03-02 11:31:00,
2013-03-02 06:36:00,23.8,19.1,29.82,NW,315,0.4,5.1,82,0.00,,,0.00,WUHU216HW,2013-03-02 11:36:00,
2013-03-02 06:41:00,23.8,19.1,29.82,WNW,293,0.4,5.1,82,0.00,,,0.00,WUHU216HW,2013-03-02 11:41:00,
2013-03-02 06:46:00,23.8,19.1,29.82,North,0,0.4,2.0,82,0.00,,,0.00,WUHU216HW,2013-03-02 11:46:00,
2013-03-02 06:51:00,23.6,18.9,29.82,NNW,338,0.9,2.5,82,0.00,,,0.00,WUHU216HW,2013-03-02 11:51:00,
2013-03-02 06:56:00,23.6,18.9,29.82,NNW,338,0.2,2.5,82,0.00,,,0.00,WUHU216HW,2013-03-02 11:56:00,
2013-03-02 07:01:00,23.6,18.9,29.82,NW,315,1.1,2.9,82,0.00,,,0.00,WUHU216HW,2013-03-02 12:01:00,
2013-03-02 07:06:00,23.6,18.9,29.82,NNW,338,0.4,2.9,82,0.00,,,0.00,WUHU216HW,2013-03-02 12:06:00,
2013-03-02 07:11:00,23.6,18.9,29.82,NW,315,0.7,3.4,82,0.00,,,0.00,WUHU216HW,2013-03-02 12:11:00,
2013-03-02 07:16:00,23.6,18.9,29.82,WNW,293,0.4,3.4,82,0.00,,,0.00,WUHU216HW,2013-03-02 12:16:00,
2013-03-02 07:21:00,23.4,18.7,29.82,WNW,293,3.4,3.4,82,0.00,,,0.00,WUHU216HW,2013-03-02 12:21:00,
2013-03-02 07:26:00,23.4,18.7,29.82,West,270,1.6,3.4,82,0.00,,,0.00,WUHU216HW,2013-03-02 12:26:00,
2013-03-02 07:31:00,23.4,18.7,29.82,WNW,293,1.3,3.4,82,0.00,,,0.00,WUHU216HW,2013-03-02 12:31:00,
2013-03-02 07:36:00,23.4,18.7,29.83,WNW,293,0.9,2.5,82,0.00,,,0.00,WUHU216HW,2013-03-02 12:36:00,
2013-03-02 07:41:00,23.4,18.7,29.83,NW,315,2.5,2.5,82,0.00,,,0.00,WUHU216HW,2013-03-02 12:41:00,
2013-03-02 07:46:00,23.4,18.7,29.83,WNW,293,4.0,4.0,82,0.00,,,0.00,WUHU216HW,2013-03-02 12:46:00,
2013-03-02 07:51:00,23.4,18.7,29.83,NNW,338,1.8,4.0,82,0.00,,,0.00,WUHU216HW,2013-03-02 12:51:00,
2013-03-02 07:56:00,23.4,18.7,29.83,North,0,2.0,4.0,82,0.00,,,0.00,WUHU216HW,2013-03-02 12:56:00,
2013-03-02 08:01:00,23.4,18.7,29.83,WNW,293,1.3,3.4,82,0.00,,,0.00,WUHU216HW,2013-03-02 13:01:00,
2013-03-02 08:06:00,23.6,18.9,29.83,NNW,338,1.1,2.0,82,0.00,,,0.00,WUHU216HW,2013-03-02 13:06:00,
2013-03-02 08:11:00,23.4,18.7,29.83,NW,315,1.1,3.4,82,0.00,,,0.00,WUHU216HW,2013-03-02 13:11:00,
2013-03-02 08:16:00,23.4,18.7,29.83,North,0,1.8,3.4,82,0.00,,,0.00,WUHU216HW,2013-03-02 13:16:00,
2013-03-02 08:21:00,23.4,19.0,29.83,North,0,1.1,5.4,83,0.00,,,0.00,WUHU216HW,2013-03-02 13:21:00,
2013-03-02 08:26:00,23.6,19.2,29.83,WNW,293,1.3,5.4,83,0.00,,,0.00,WUHU216HW,2013-03-02 13:26:00,
2013-03-02 08:31:00,23.6,19.2,29.83,WNW,293,0.4,1.6,83,0.00,,,0.00,WUHU216HW,2013-03-02 13:31:00,
2013-03-02 08:36:00,23.6,19.2,29.84,NNW,338,1.1,2.5,83,0.00,,,0.00,WUHU216HW,2013-03-02 13:36:00,
2013-03-02 08:41:00,23.8,19.4,29.83,WNW,293,0.7,2.5,83,0.00,,,0.00,WUHU216HW,2013-03-02 13:41:00,
2013-03-02 08:46:00,23.6,19.2,29.83,NNW,338,1.8,2.5,83,0.00,,,0.00,WUHU216HW,2013-03-02 13:46:00,
2013-03-02 08:51:00,23.6,19.2,29.84,NNW,338,2.5,4.7,83,0.00,,,0.00,WUHU216HW,2013-03-02 13:51:00,
2013-03-02 08:56:00,23.6,19.2,29.83,WNW,293,1.3,4.7,83,0.00,,,0.00,WUHU216HW,2013-03-02 13:56:00,
2013-03-02 09:01:00,23.8,19.4,29.84,NNW,338,0.4,2.5,83,0.00,,,0.00,WUHU216HW,2013-03-02 14:01:00,
2013-03-02 09:06:00,23.8,19.4,29.84,North,0,0.2,3.4,83,0.00,,,0.00,WUHU216HW,2013-03-02 14:06:00,
2013-03-02 09:11:00,23.8,19.4,29.84,North,0,1.6,3.4,83,0.00,,,0.00,WUHU216HW,2013-03-02 14:11:00,
2013-03-02 09:16:00,23.9,19.5,29.84,WNW,293,3.1,3.1,83,0.00,,,0.00,WUHU216HW,2013-03-02 14:16:00,
2013-03-02 09:21:00,23.9,19.5,29.84,NNW,338,0.9,3.1,83,0.00,,,0.00,WUHU216HW,2013-03-02 14:21:00,
2013-03-02 09:28:00,23.9,19.5,29.84,West,270,1.8,3.1,83,0.00,,,0.00,WUHU216HW,2013-03-02 14:28:00,
2013-03-02 09:33:00,24.1,19.7,29.84,NNW,338,0.4,2.5,83,0.00,,,0.00,WUHU216HW,2013-03-02 14:33:00,
2013-03-02 09:38:00,24.1,19.7,29.84,NW,315,1.6,1.8,83,0.00,,,0.00,WUHU216HW,2013-03-02 14:38:00,
2013-03-02 09:43:00,24.3,19.9,29.84,WNW,293,3.8,3.8,83,0.00,,,0.00,WUHU216HW,2013-03-02 14:43:00,
2013-03-02 09:48:00,24.3,19.9,29.84,NNW,338,0.4,3.8,83,0.00,,,0.00,WUHU216HW,2013-03-02 14:48:00,
2013-03-02 09:53:00,24.3,19.9,29.83,WNW,293,3.6,3.6,83,0.00,,,0.00,WUHU216HW,2013-03-02 14:53:00,
2013-03-02 09:58:00,24.5,20.1,29.83,NW,315,0.4,3.6,83,0.00,,,0.00,WUHU216HW,2013-03-02 14:58:00,
2013-03-02 10:03:00,24.5,19.8,29.84,NW,315,1.3,3.6,82,0.00,,,0.00,WUHU216HW,2013-03-02 15:03:00,
2013-03-02 10:08:00,24.5,19.8,29.83,WNW,293,2.5,4.5,82,0.00,,,0.00,WUHU216HW,2013-03-02 15:08:00,
2013-03-02 10:13:00,24.7,20.0,29.83,WNW,293,1.6,4.5,82,0.00,,,0.00,WUHU216HW,2013-03-02 15:13:00,
2013-03-02 10:18:00,24.7,20.0,29.83,WNW,293,1.1,2.7,82,0.00,,,0.00,WUHU216HW,2013-03-02 15:18:00,
2013-03-02 10:23:00,24.8,20.2,29.83,NNW,338,1.1,2.0,82,0.00,,,0.00,WUHU216HW,2013-03-02 15:23:00,
2013-03-02 10:28:00,24.8,20.2,29.83,NNW,338,1.3,2.5,82,0.00,,,0.00,WUHU216HW,2013-03-02 15:28:00,
2013-03-02 10:33:00,25.0,20.4,29.83,NNW,338,1.1,2.7,82,0.00,,,0.00,WUHU216HW,2013-03-02 15:33:00,
2013-03-02 10:38:00,25.2,20.5,29.83,WNW,293,1.8,2.7,82,0.00,,,0.00,WUHU216HW,2013-03-02 15:38:00,
2013-03-02 10:43:00,25.2,20.5,29.83,NW,315,1.1,4.5,82,0.00,,,0.00,WUHU216HW,2013-03-02 15:43:00,
2013-03-02 10:48:00,25.0,20.4,29.83,NW,315,1.8,4.5,82,0.00,,,0.00,WUHU216HW,2013-03-02 15:48:00,
2013-03-02 10:53:00,25.0,20.1,29.83,North,0,2.2,3.4,81,0.00,,,0.00,WUHU216HW,2013-03-02 15:53:00,
2013-03-02 10:58:00,25.0,20.1,29.83,NW,315,1.8,2.5,81,0.00,,,0.00,WUHU216HW,2013-03-02 15:58:00,
2013-03-02 11:03:00,25.4,20.7,29.84,West,270,0.7,2.5,82,0.00,,,0.00,WUHU216HW,2013-03-02 16:03:00,
2013-03-02 11:08:00,25.6,20.5,29.83,North,0,2.5,3.1,81,0.00,,,0.00,WUHU216HW,2013-03-02 16:08:00,
2013-03-02 11:13:00,25.6,20.3,29.83,NNW,338,1.3,5.1,80,0.00,,,0.00,WUHU216HW,2013-03-02 16:13:00,
2013-03-02 11:18:00,25.2,20.0,29.83,NNW,338,3.4,5.1,80,0.00,,,0.00,WUHU216HW,2013-03-02 16:18:00,
2013-03-02 11:23:00,25.4,20.1,29.83,NW,315,3.1,4.0,80,0.00,,,0.00,WUHU216HW,2013-03-02 16:23:00,
2013-03-02 11:28:00,25.4,20.3,29.83,NNW,338,2.5,4.0,81,0.00,,,0.00,WUHU216HW,2013-03-02 16:28:00,
2013-03-02 11:33:00,25.4,20.3,29.83,NNW,338,0.9,4.0,81,0.00,,,0.00,WUHU216HW,2013-03-02 16:33:00,
2013-03-02 11:38:00,25.6,20.3,29.83,WNW,293,3.4,4.0,80,0.00,,,0.00,WUHU216HW,2013-03-02 16:38:00,
2013-03-02 11:43:00,25.6,20.3,29.83,NW,315,1.1,5.4,80,0.00,,,0.00,WUHU216HW,2013-03-02 16:43:00,
2013-03-02 11:48:00,25.7,20.4,29.83,North,0,3.1,5.4,80,0.00,,,0.00,WUHU216HW,2013-03-02 16:48:00,
2013-03-02 11:53:00,25.7,20.4,29.83,NNW,338,2.5,5.1,80,0.00,,,0.00,WUHU216HW,2013-03-02 16:53:00,
2013-03-02 11:58:00,25.9,20.6,29.83,NNW,338,3.8,5.1,80,0.00,,,0.00,WUHU216HW,2013-03-02 16:58:00,
2013-03-02 12:03:00,25.9,20.6,29.83,NNW,338,2.7,4.0,80,0.00,,,0.00,WUHU216HW,2013-03-02 17:03:00,
2013-03-02 12:08:00,25.6,20.5,29.83,NW,315,1.1,4.0,81,0.00,,,0.00,WUHU216HW,2013-03-02 17:08:00,
2013-03-02 12:13:00,25.7,20.4,29.83,NW,315,3.4,4.9,80,0.00,,,0.00,WUHU216HW,2013-03-02 17:13:00,
2013-03-02 12:18:00,25.7,20.4,29.83,WNW,293,1.8,4.9,80,0.00,,,0.00,WUHU216HW,2013-03-02 17:18:00,
2013-03-02 12:23:00,25.7,20.4,29.83,North,0,2.2,4.0,80,0.00,,,0.00,WUHU216HW,2013-03-02 17:23:00,
2013-03-02 12:28:00,25.7,20.4,29.83,North,0,0.7,3.6,80,0.00,,,0.00,WUHU216HW,2013-03-02 17:28:00,
2013-03-02 12:33:00,25.7,20.7,29.82,NW,315,0.9,4.5,81,0.00,,,0.00,WUHU216HW,2013-03-02 17:33:00,
2013-03-02 12:38:00,25.9,20.6,29.82,NNE,23,2.7,4.9,80,0.00,,,0.00,WUHU216HW,2013-03-02 17:38:00,
2013-03-02 12:43:00,26.5,20.8,29.82,NNW,338,2.2,4.9,79,0.00,,,0.00,WUHU216HW,2013-03-02 17:43:00,
2013-03-02 12:48:00,26.8,21.2,29.82,NNW,338,0.9,4.7,79,0.00,,,0.00,WUHU216HW,2013-03-02 17:48:00,
2013-03-02 12:53:00,27.0,21.0,29.82,WNW,293,4.0,4.0,78,0.00,,,0.00,WUHU216HW,2013-03-02 17:53:00,
2013-03-02 12:58:00,27.0,20.7,29.82,NW,315,1.1,4.0,77,0.00,,,0.00,WUHU216HW,2013-03-02 17:58:00,
2013-03-02 13:03:00,27.0,20.7,29.82,NNW,338,0.9,3.6,77,0.00,,,0.00,WUHU216HW,2013-03-02 18:03:00,
2013-03-02 13:08:00,26.6,20.0,29.82,NW,315,3.4,6.0,76,0.00,,,0.00,WUHU216HW,2013-03-02 18:08:00,
2013-03-02 13:13:00,26.8,20.5,29.81,NNW,338,4.9,6.0,77,0.00,,,0.00,WUHU216HW,2013-03-02 18:13:00,
2013-03-02 13:18:00,26.5,19.9,29.81,NNW,338,2.2,4.9,76,0.00,,,0.00,WUHU216HW,2013-03-02 18:18:00,
2013-03-02 13:23:00,26.5,19.9,29.81,North,0,1.1,4.9,76,0.00,,,0.00,WUHU216HW,2013-03-02 18:23:00,
2013-03-02 13:28:00,26.6,20.0,29.81,NNE,23,1.6,4.3,76,0.00,,,0.00,WUHU216HW,2013-03-02 18:28:00,
2013-03-02 13:33:00,26.6,19.7,29.81,NNW,338,1.8,4.5,75,0.00,,,0.00,WUHU216HW,2013-03-02 18:33:00,
2013-03-02 13:43:00,26.5,19.5,29.81,NNE,23,3.4,4.5,75,0.00,,,0.00,WUHU216HW,2013-03-02 18:43:00,
2013-03-02 13:48:00,26.8,19.9,29.81,NNE,23,1.1,8.5,75,0.00,,,0.00,WUHU216HW,2013-03-02 18:48:00,
2013-03-02 13:53:00,26.8,19.6,29.81,North,0,2.9,8.5,74,0.00,,,0.00,WUHU216HW,2013-03-02 18:53:00,
2013-03-02 13:59:00,26.8,19.9,29.81,North,0,3.4,8.5,75,0.00,,,0.00,WUHU216HW,2013-03-02 18:59:00,
2013-03-02 14:04:00,26.8,19.9,29.81,NNE,23,6.0,6.0,75,0.00,,,0.00,WUHU216HW,2013-03-02 19:04:00,
2013-03-02 14:09:00,26.6,19.7,29.81,NNE,23,1.8,6.0,75,0.00,,,0.00,WUHU216HW,2013-03-02 19:09:00,
2013-03-02 14:14:00,26.5,19.3,29.81,NE,45,2.2,6.3,74,0.00,,,0.00,WUHU216HW,2013-03-02 19:14:00,
2013-03-02 14:19:00,26.5,19.5,29.81,WNW,293,1.3,6.3,75,0.00,,,0.00,WUHU216HW,2013-03-02 19:19:00,
2013-03-02 14:24:00,26.6,19.7,29.81,NW,315,1.3,4.0,75,0.00,,,0.00,WUHU216HW,2013-03-02 19:24:00,
2013-03-02 14:29:00,26.6,19.7,29.81,North,0,4.0,4.7,75,0.00,,,0.00,WUHU216HW,2013-03-02 19:29:00,
2013-03-02 14:34:00,26.5,19.5,29.81,WNW,293,2.0,4.7,75,0.00,,,0.00,WUHU216HW,2013-03-02 19:34:00,
2013-03-02 14:39:00,26.5,19.5,29.81,NNE,23,3.1,4.5,75,0.00,,,0.00,WUHU216HW,2013-03-02 19:39:00,
2013-03-02 14:44:00,26.5,19.5,29.81,North,0,4.7,4.7,75,0.00,,,0.00,WUHU216HW,2013-03-02 19:44:00,
2013-03-02 14:49:00,26.5,19.5,29.81,North,0,1.8,4.7,75,0.00,,,0.00,WUHU216HW,2013-03-02 19:49:00,
2013-03-02 14:54:00,26.5,19.5,29.81,North,0,1.8,4.7,75,0.00,,,0.00,WUHU216HW,2013-03-02 19:54:00,
2013-03-02 15:00:00,26.6,19.7,29.81,NW,315,1.8,1.8,75,0.00,,,0.00,WUHU216HW,2013-03-02 20:00:00,
2013-03-02 15:05:00,26.6,19.7,29.81,WNW,293,2.0,2.0,75,0.00,,,0.00,WUHU216HW,2013-03-02 20:05:00,
2013-03-02 15:10:00,26.3,19.4,29.81,NW,315,2.7,4.0,75,0.00,,,0.00,WUHU216HW,2013-03-02 20:10:00,
2013-03-02 15:15:00,26.3,19.4,29.81,NNW,338,3.6,4.7,75,0.00,,,0.00,WUHU216HW,2013-03-02 20:15:00,
2013-03-02 15:20:00,26.3,19.4,29.81,NNE,23,1.6,4.7,75,0.00,,,0.00,WUHU216HW,2013-03-02 20:20:00,
2013-03-02 15:25:00,26.3,19.4,29.81,NW,315,1.3,8.1,75,0.00,,,0.00,WUHU216HW,2013-03-02 20:25:00,
2013-03-02 15:30:00,26.3,19.4,29.81,NE,45,2.2,8.1,75,0.00,,,0.00,WUHU216HW,2013-03-02 20:30:00,
2013-03-02 15:35:00,26.3,19.4,29.81,North,0,4.5,4.5,75,0.00,,,0.00,WUHU216HW,2013-03-02 20:35:00,
2013-03-02 15:40:00,26.3,19.4,29.81,NNE,23,3.6,4.5,75,0.00,,,0.00,WUHU216HW,2013-03-02 20:40:00,
2013-03-02 15:45:00,26.3,19.4,29.81,NNW,338,1.8,4.7,75,0.00,,,0.00,WUHU216HW,2013-03-02 20:45:00,
2013-03-02 15:50:00,26.1,19.2,29.81,NE,45,4.7,4.7,75,0.00,,,0.00,WUHU216HW,2013-03-02 20:50:00,
2013-03-02 15:55:00,25.9,19.0,29.81,NNE,23,4.3,5.4,75,0.00,,,0.00,WUHU216HW,2013-03-02 20:55:00,
2013-03-02 16:00:00,26.1,19.2,29.81,North,0,4.7,5.6,75,0.00,,,0.00,WUHU216HW,2013-03-02 21:00:00,
2013-03-02 16:05:00,26.1,19.2,29.81,North,0,0.7,5.6,75,0.00,,,0.00,WUHU216HW,2013-03-02 21:05:00,
2013-03-02 16:10:00,26.1,19.2,29.81,NNW,338,1.6,4.9,75,0.00,,,0.00,WUHU216HW,2013-03-02 21:10:00,
2013-03-02 16:15:00,25.9,19.0,29.81,NNW,338,2.0,5.8,75,0.00,,,0.00,WUHU216HW,2013-03-02 21:15:00,
2013-03-02 16:20:00,25.9,19.0,29.81,NNE,23,1.8,5.8,75,0.00,,,0.00,WUHU216HW,2013-03-02 21:20:00,
2013-03-02 16:25:00,25.9,19.4,29.81,NNW,338,2.9,3.4,76,0.00,,,0.00,WUHU216HW,2013-03-02 21:25:00,
2013-03-02 16:30:00,25.7,18.8,29.81,North,0,2.5,3.1,75,0.00,,,0.00,WUHU216HW,2013-03-02 21:30:00,
2013-03-02 16:35:00,25.6,18.7,29.81,NW,315,1.8,3.1,75,0.00,,,0.00,WUHU216HW,2013-03-02 21:35:00,
2013-03-02 16:40:00,25.6,19.0,29.82,NNE,23,0.7,4.7,76,0.00,,,0.00,WUHU216HW,2013-03-02 21:40:00,
2013-03-02 16:45:00,25.4,18.6,29.81,WNW,293,3.1,4.7,75,0.00,,,0.00,WUHU216HW,2013-03-02 21:45:00,
2013-03-02 16:50:00,25.4,18.6,29.82,NW,315,1.3,4.9,75,0.00,,,0.00,WUHU216HW,2013-03-02 21:50:00,
2013-03-02 16:55:00,25.4,18.6,29.82,North,0,3.6,4.9,75,0.00,,,0.00,WUHU216HW,2013-03-02 21:55:00,
2013-03-02 17:00:00,25.2,18.4,29.82,North,0,1.3,5.8,75,0.00,,,0.00,WUHU216HW,2013-03-02 22:00:00,
2013-03-02 17:05:00,25.2,18.6,29.82,NE,45,2.2,5.8,76,0.00,,,0.00,WUHU216HW,2013-03-02 22:05:00,
2013-03-02 17:10:00,25.0,18.2,29.82,NNE,23,4.0,4.0,75,0.00,,,0.00,WUHU216HW,2013-03-02 22:10:00,
2013-03-02 17:15:00,24.8,18.0,29.82,North,0,0.7,4.0,75,0.00,,,0.00,WUHU216HW,2013-03-02 22:15:00,
2013-03-02 17:20:00,24.8,18.4,29.82,NW,315,2.7,4.3,76,0.00,,,0.00,WUHU216HW,2013-03-02 22:20:00,
2013-03-02 17:25:00,24.8,18.4,29.82,North,0,1.8,4.3,76,0.00,,,0.00,WUHU216HW,2013-03-02 22:25:00,
2013-03-02 17:30:00,24.8,18.4,29.82,NNE,23,3.1,4.7,76,0.00,,,0.00,WUHU216HW,2013-03-02 22:30:00,
2013-03-02 17:35:00,24.7,18.2,29.82,NNE,23,2.5,4.7,76,0.00,,,0.00,WUHU216HW,2013-03-02 22:35:00,
2013-03-02 17:40:00,24.7,18.2,29.82,North,0,2.5,4.0,76,0.00,,,0.00,WUHU216HW,2013-03-02 22:40:00,
2013-03-02 17:45:00,24.7,18.5,29.82,NW,315,0.4,3.8,77,0.00,,,0.00,WUHU216HW,2013-03-02 22:45:00,
2013-03-02 17:50:00,24.5,18.0,29.83,NNE,23,3.8,4.5,76,0.00,,,0.00,WUHU216HW,2013-03-02 22:50:00,
2013-03-02 17:55:00,24.3,17.5,29.83,NNE,23,1.8,4.5,75,0.00,,,0.00,WUHU216HW,2013-03-02 22:55:00,
2013-03-02 18:00:00,24.3,17.8,29.83,NW,315,3.4,4.3,76,0.00,,,0.00,WUHU216HW,2013-03-02 23:00:00,
2013-03-02 18:05:00,24.3,17.8,29.83,NW,315,2.0,3.8,76,0.00,,,0.00,WUHU216HW,2013-03-02 23:05:00,
2013-03-02 18:10:00,24.3,17.8,29.83,NW,315,2.0,3.8,76,0.00,,,0.00,WUHU216HW,2013-03-02 23:10:00,
2013-03-02 19:00:00,23.8,17.7,29.84,North,0,1.8,1.8,77,0.00,,,0.00,WUHU216HW,2013-03-03 00:00:00,
2013-03-02 19:05:00,23.8,17.7,29.84,North,0,3.4,4.0,77,0.00,,,0.00,WUHU216HW,2013-03-03 00:05:00,
2013-03-02 19:10:00,23.8,17.7,29.84,North,0,1.1,4.0,77,0.00,,,0.00,WUHU216HW,2013-03-03 00:10:00,
2013-03-02 19:15:00,23.8,17.7,29.84,NW,315,2.5,3.4,77,0.00,,,0.00,WUHU216HW,2013-03-03 00:15:00,
2013-03-02 19:20:00,23.8,17.7,29.84,NNE,23,2.9,4.3,77,0.00,,,0.00,WUHU216HW,2013-03-03 00:20:00,
2013-03-02 19:25:00,23.8,17.7,29.84,NNW,338,3.4,4.3,77,0.00,,,0.00,WUHU216HW,2013-03-03 00:25:00,
2013-03-02 19:30:00,23.6,17.5,29.84,North,0,1.1,3.4,77,0.00,,,0.00,WUHU216HW,2013-03-03 00:30:00,
2013-03-02 19:35:00,23.6,17.5,29.84,NNE,23,2.0,3.4,77,0.00,,,0.00,WUHU216HW,2013-03-03 00:35:00,
2013-03-02 19:40:00,23.6,17.5,29.84,NW,315,1.1,2.5,77,0.00,,,0.00,WUHU216HW,2013-03-03 00:40:00,
2013-03-02 19:45:00,23.6,17.5,29.84,North,0,2.7,5.1,77,0.00,,,0.00,WUHU216HW,2013-03-03 00:45:00,
2013-03-02 19:50:00,23.4,16.9,29.83,NNW,338,1.6,5.1,76,0.00,,,0.00,WUHU216HW,2013-03-03 00:50:00,
2013-03-02 19:55:00,23.4,16.9,29.84,NNE,23,4.9,4.9,76,0.00,,,0.00,WUHU216HW,2013-03-03 00:55:00,
2013-03-02 20:00:00,23.4,16.9,29.83,NNE,23,1.1,6.3,76,0.00,,,0.00,WUHU216HW,2013-03-03 01:00:00,
2013-03-02 20:05:00,23.4,16.9,29.83,North,0,1.6,6.3,76,0.00,,,0.00,WUHU216HW,2013-03-03 01:05:00,
2013-03-02 20:10:00,23.4,16.9,29.83,NW,315,1.1,2.5,76,0.00,,,0.00,WUHU216HW,2013-03-03 01:10:00,
2013-03-02 20:15:00,23.4,16.9,29.83,NNW,338,2.0,4.5,76,0.00,,,0.00,WUHU216HW,2013-03-03 01:15:00,
2013-03-02 20:20:00,23.4,16.9,29.83,NNE,23,1.1,4.5,76,0.00,,,0.00,WUHU216HW,2013-03-03 01:20:00,
2013-03-02 20:25:00,23.4,16.9,29.83,NW,315,1.1,3.1,76,0.00,,,0.00,WUHU216HW,2013-03-03 01:25:00,
2013-03-02 20:30:00,23.4,17.3,29.83,North,0,0.4,3.1,77,0.00,,,0.00,WUHU216HW,2013-03-03 01:30:00,
2013-03-02 20:35:00,23.4,17.3,29.83,North,0,0.4,3.1,77,0.00,,,0.00,WUHU216HW,2013-03-03 01:35:00,
2013-03-02 20:40:00,23.4,17.3,29.83,North,0,0.4,2.2,77,0.00,,,0.00,WUHU216HW,2013-03-03 01:40:00,
2013-03-02 20:45:00,23.6,17.5,29.82,WNW,293,0.0,2.5,77,0.00,,,0.00,WUHU216HW,2013-03-03 01:45:00,
2013-03-02 20:50:00,23.6,17.7,29.83,NNW,338,1.3,2.5,78,0.00,,,0.00,WUHU216HW,2013-03-03 01:50:00,
2013-03-02 20:55:00,23.4,17.6,29.83,North,0,0.4,2.0,78,0.00,,,0.00,WUHU216HW,2013-03-03 01:55:00,
2013-03-02 21:00:00,23.4,17.6,29.83,WNW,293,0.7,1.3,78,0.00,,,0.00,WUHU216HW,2013-03-03 02:00:00,
2013-03-02 21:05:00,23.4,18.2,29.83,NW,315,2.0,3.4,80,0.00,,,0.00,WUHU216HW,2013-03-03 02:05:00,
2013-03-02 21:10:00,23.4,18.2,29.83,NW,315,1.1,3.4,80,0.00,,,0.00,WUHU216HW,2013-03-03 02:10:00,
2013-03-02 21:15:00,23.4,18.2,29.83,NW,315,1.8,2.2,80,0.00,,,0.00,WUHU216HW,2013-03-03 02:15:00,
2013-03-02 21:20:00,23.4,18.2,29.83,NW,315,1.3,3.1,80,0.00,,,0.00,WUHU216HW,2013-03-03 02:20:00,
2013-03-02 21:25:00,23.4,18.2,29.83,WNW,293,3.1,3.1,80,0.00,,,0.00,WUHU216HW,2013-03-03 02:25:00,
2013-03-02 21:30:00,23.4,18.2,29.83,NW,315,1.1,3.1,80,0.00,,,0.00,WUHU216HW,2013-03-03 02:30:00,
2013-03-02 21:35:00,23.2,18.0,29.83,WNW,293,0.7,3.1,80,0.00,,,0.00,WUHU216HW,2013-03-03 02:35:00,
2013-03-02 21:40:00,23.2,18.3,29.83,NW,315,1.6,2.0,81,0.00,,,0.00,WUHU216HW,2013-03-03 02:40:00,
2013-03-02 21:45:00,23.2,18.3,29.83,NW,315,0.4,2.0,81,0.00,,,0.00,WUHU216HW,2013-03-03 02:45:00,
2013-03-02 21:50:00,23.2,18.5,29.83,NW,315,2.9,2.9,82,0.00,,,0.00,WUHU216HW,2013-03-03 02:50:00,
2013-03-02 21:55:00,23.2,18.3,29.82,NNW,338,0.4,2.9,81,0.00,,,0.00,WUHU216HW,2013-03-03 02:55:00,
2013-03-02 22:00:00,23.2,18.3,29.82,NW,315,1.3,1.3,81,0.00,,,0.00,WUHU216HW,2013-03-03 03:00:00,
2013-03-02 22:05:00,23.0,18.1,29.82,NW,315,0.0,1.3,81,0.00,,,0.00,WUHU216HW,2013-03-03 03:05:00,
2013-03-02 22:10:00,23.0,18.4,29.82,West,270,0.7,1.3,82,0.00,,,0.00,WUHU216HW,2013-03-03 03:10:00,
2013-03-02 22:15:00,23.0,18.4,29.82,WNW,293,0.9,1.8,82,0.00,,,0.00,WUHU216HW,2013-03-03 03:15:00,
2013-03-02 22:20:00,23.0,18.4,29.82,West,270,1.1,1.8,82,0.00,,,0.00,WUHU216HW,2013-03-03 03:20:00,
2013-03-02 22:25:00,23.0,18.4,29.82,WNW,293,0.4,1.3,82,0.00,,,0.00,WUHU216HW,2013-03-03 03:25:00,
2013-03-02 22:30:00,23.0,18.1,29.82,WNW,293,1.3,2.0,81,0.00,,,0.00,WUHU216HW,2013-03-03 03:30:00,
2013-03-02 22:35:00,23.0,18.1,29.82,NW,315,1.6,2.0,81,0.00,,,0.00,WUHU216HW,2013-03-03 03:35:00,
2013-03-02 22:40:00,22.9,17.9,29.82,WNW,293,1.1,2.0,81,0.00,,,0.00,WUHU216HW,2013-03-03 03:40:00,
2013-03-02 22:45:00,22.9,17.9,29.82,WNW,293,0.7,2.0,81,0.00,,,0.00,WUHU216HW,2013-03-03 03:45:00,
2013-03-02 22:50:00,23.0,18.1,29.82,West,270,1.1,2.0,81,0.00,,,0.00,WUHU216HW,2013-03-03 03:50:00,
2013-03-02 22:55:00,23.0,18.1,29.82,NW,315,1.1,4.0,81,0.00,,,0.00,WUHU216HW,2013-03-03 03:55:00,
2013-03-02 23:00:00,22.9,17.9,29.82,West,270,1.1,4.0,81,0.00,,,0.00,WUHU216HW,2013-03-03 04:00:00,
2013-03-02 23:05:00,22.9,17.6,29.82,WSW,248,4.5,4.5,80,0.00,,,0.00,WUHU216HW,2013-03-03 04:05:00,
2013-03-02 23:10:00,22.9,17.6,29.82,WSW,248,0.9,4.5,80,0.00,,,0.00,WUHU216HW,2013-03-03 04:10:00,
2013-03-02 23:15:00,22.9,17.6,29.82,NW,315,1.3,4.5,80,0.00,,,0.00,WUHU216HW,2013-03-03 04:15:00,
2013-03-02 23:20:00,22.9,17.6,29.82,West,270,0.7,3.8,80,0.00,,,0.00,WUHU216HW,2013-03-03 04:20:00,
2013-03-02 23:25:00,22.7,17.5,29.82,WNW,293,2.5,2.7,80,0.00,,,0.00,WUHU216HW,2013-03-03 04:25:00,
2013-03-02 23:30:00,22.9,17.6,29.82,NW,315,1.1,2.5,80,0.00,,,0.00,WUHU216HW,2013-03-03 04:30:00,
2013-03-02 23:35:00,22.9,17.6,29.82,WNW,293,0.4,3.4,80,0.00,,,0.00,WUHU216HW,2013-03-03 04:35:00,
2013-03-02 23:40:00,22.7,17.5,29.82,NW,315,1.1,3.4,80,0.00,,,0.00,WUHU216HW,2013-03-03 04:40:00,
2013-03-02 23:45:00,22.7,17.5,29.82,WSW,248,0.9,2.5,80,0.00,,,0.00,WUHU216HW,2013-03-03 04:45:00,
2013-03-02 23:50:00,22.7,17.2,29.82,NW,315,1.3,4.7,79,0.00,,,0.00,WUHU216HW,2013-03-03 04:50:00,
2013-03-02 23:55:00,22.7,17.5,29.82,NNW,338,2.0,4.7,80,0.00,,,0.00,WUHU216HW,2013-03-03 04:55:00,